sensor_id;sensor_type;location;lat;lon;timestamp;pressure;altitude;pressure_sealevel;temperature;humidity
61961;BME280;47923;42.506;24.192;2022-10-16T00:00:34;96249.41;;;6.70;86.04
61961;BME280;47923;42.506;24.192;2022-10-16T00:03:00;95979.50;;;5.11;86.05
61961;BME280;47923;42.506;24.192;2022-10-16T00:05:26;96068.72;;;5.60;85.99
61961;BME280;47923;42.506;24.192;2022-10-16T00:07:57;96063.50;;;5.55;85.17
61961;BME280;47923;42.506;24.192;2022-10-16T00:10:23;95914.56;;;4.49;85.41
61961;BME280;47923;42.506;24.192;2022-10-16T00:12:48;95822.84;;;3.95;85.66
61961;BME280;47923;42.506;24.192;2022-10-16T00:15:14;96144.97;;;5.85;86.13
61961;BME280;47923;42.506;24.192;2022-10-16T00:17:39;96155.78;;;5.71;85.75
61961;BME280;47923;42.506;24.192;2022-10-16T00:20:05;96142.69;;;5.61;86.17
61961;BME280;47923;42.506;24.192;2022-10-16T00:22:31;96138.25;;;5.65;86.06
61961;BME280;47923;42.506;24.192;2022-10-16T00:24:56;95624.84;;;2.00;85.50
61961;BME280;47923;42.506;24.192;2022-10-16T00:27:22;95698.66;;;2.85;84.52
61961;BME280;47923;42.506;24.192;2022-10-16T00:29:51;96097.28;;;5.25;86.16
61961;BME280;47923;42.506;24.192;2022-10-16T00:32:18;96265.38;;;6.18;86.46
61961;BME280;47923;42.506;24.192;2022-10-16T00:34:44;95892.66;;;3.71;86.22
61961;BME280;47923;42.506;24.192;2022-10-16T00:37:09;96072.09;;;4.72;87.19
61961;BME280;47923;42.506;24.192;2022-10-16T00:39:40;95940.16;;;3.96;87.13
61961;BME280;47923;42.506;24.192;2022-10-16T00:42:05;96136.47;;;5.21;86.38
61961;BME280;47923;42.506;24.192;2022-10-16T00:45:00;95544.13;;;1.35;86.33
61961;BME280;47923;42.506;24.192;2022-10-16T00:47:30;96246.03;;;5.76;87.58
61961;BME280;47923;42.506;24.192;2022-10-16T00:50:06;96222.13;;;5.35;88.35
61961;BME280;47923;42.506;24.192;2022-10-16T00:52:32;95946.19;;;3.29;88.45
61961;BME280;47923;42.506;24.192;2022-10-16T00:54:58;95998.88;;;3.65;87.79
61961;BME280;47923;42.506;24.192;2022-10-16T00:57:24;96178.19;;;4.91;87.87
61961;BME280;47923;42.506;24.192;2022-10-16T00:59:50;96192.09;;;4.93;88.13
61961;BME280;47923;42.506;24.192;2022-10-16T01:02:16;96056.84;;;3.78;87.64
61961;BME280;47923;42.506;24.192;2022-10-16T01:04:50;96074.44;;;3.93;88.32
61961;BME280;47923;42.506;24.192;2022-10-16T01:13:01;96284.75;;;5.16;88.41
61961;BME280;47923;42.506;24.192;2022-10-16T01:15:41;96268.47;;;5.13;87.74
61961;BME280;47923;42.506;24.192;2022-10-16T01:18:13;96272.13;;;5.17;87.29
61961;BME280;47923;42.506;24.192;2022-10-16T01:20:46;96017.22;;;3.44;87.47
61961;BME280;47923;42.506;24.192;2022-10-16T01:28:38;96164.31;;;4.30;87.80
61961;BME280;47923;42.506;24.192;2022-10-16T01:31:05;96278.22;;;5.09;87.65
61961;BME280;47923;42.506;24.192;2022-10-16T01:33:40;96267.19;;;5.10;87.95
61961;BME280;47923;42.506;24.192;2022-10-16T01:36:21;96164.06;;;4.40;87.06
61961;BME280;47923;42.506;24.192;2022-10-16T01:38:53;96031.78;;;3.38;86.40
61961;BME280;47923;42.506;24.192;2022-10-16T01:41:37;96208.69;;;4.31;87.10
61961;BME280;47923;42.506;24.192;2022-10-16T01:44:11;95818.25;;;1.87;87.16
61961;BME280;47923;42.506;24.192;2022-10-16T01:46:43;96289.09;;;4.76;87.65
61961;BME280;47923;42.506;24.192;2022-10-16T01:49:17;96239.19;;;4.44;87.91
61961;BME280;47923;42.506;24.192;2022-10-16T01:51:47;96158.72;;;3.91;88.13
61961;BME280;47923;42.506;24.192;2022-10-16T01:54:16;96054.59;;;3.03;88.38
61961;BME280;47923;42.506;24.192;2022-10-16T01:56:45;96120.81;;;3.47;88.21
61961;BME280;47923;42.506;24.192;2022-10-16T01:59:14;96057.38;;;3.12;89.73
61961;BME280;47923;42.506;24.192;2022-10-16T02:01:45;96212.59;;;4.11;89.21
61961;BME280;47923;42.506;24.192;2022-10-16T02:04:17;95047.81;;;-3.26;87.63
61961;BME280;47923;42.506;24.192;2022-10-16T02:06:44;96260.13;;;4.28;88.49
61961;BME280;47923;42.506;24.192;2022-10-16T02:09:10;95984.81;;;2.49;88.58
61961;BME280;47923;42.506;24.192;2022-10-16T02:11:36;96148.81;;;3.50;87.14
61961;BME280;47923;42.506;24.192;2022-10-16T02:14:04;96058.53;;;2.92;87.25
61961;BME280;47923;42.506;24.192;2022-10-16T02:16:39;96224.06;;;3.98;86.92
61961;BME280;47923;42.506;24.192;2022-10-16T02:19:06;96078.13;;;3.01;88.12
61961;BME280;47923;42.506;24.192;2022-10-16T02:21:40;96281.91;;;4.35;86.98
61961;BME280;47923;42.506;24.192;2022-10-16T02:26:57;96314.13;;;4.44;87.01
61961;BME280;47923;42.506;24.192;2022-10-16T02:29:30;96235.53;;;3.85;86.67
61961;BME280;47923;42.506;24.192;2022-10-16T02:32:02;96186.00;;;3.46;87.32
61961;BME280;47923;42.506;24.192;2022-10-16T02:34:33;96223.56;;;3.69;88.31
61961;BME280;47923;42.506;24.192;2022-10-16T02:37:03;96166.66;;;3.22;88.90
61961;BME280;47923;42.506;24.192;2022-10-16T02:39:30;96089.97;;;2.81;88.62
61961;BME280;47923;42.506;24.192;2022-10-16T02:41:56;96154.00;;;3.14;88.51
61961;BME280;47923;42.506;24.192;2022-10-16T02:44:21;96158.34;;;3.10;87.62
61961;BME280;47923;42.506;24.192;2022-10-16T02:46:47;96015.75;;;2.18;88.67
61961;BME280;47923;42.506;24.192;2022-10-16T02:49:12;96232.31;;;3.42;88.09
61961;BME280;47923;42.506;24.192;2022-10-16T02:51:40;96337.31;;;3.88;88.30
61961;BME280;47923;42.506;24.192;2022-10-16T02:54:06;96263.63;;;3.36;87.99
61961;BME280;47923;42.506;24.192;2022-10-16T02:56:34;96292.22;;;3.54;89.24
61961;BME280;47923;42.506;24.192;2022-10-16T02:59:00;96328.69;;;3.78;88.70
61961;BME280;47923;42.506;24.192;2022-10-16T03:01:25;96270.78;;;3.41;88.11
61961;BME280;47923;42.506;24.192;2022-10-16T03:03:51;96252.03;;;3.27;88.31
61961;BME280;47923;42.506;24.192;2022-10-16T03:06:22;96196.66;;;3.00;89.27
61961;BME280;47923;42.506;24.192;2022-10-16T03:08:48;96238.97;;;3.25;88.12
61961;BME280;47923;42.506;24.192;2022-10-16T03:11:14;96138.59;;;2.59;87.68
61961;BME280;47923;42.506;24.192;2022-10-16T03:13:39;95747.72;;;-0.13;87.79
61961;BME280;47923;42.506;24.192;2022-10-16T03:16:05;95796.63;;;0.29;87.72
61961;BME280;47923;42.506;24.192;2022-10-16T03:18:30;96270.59;;;3.18;88.54
61961;BME280;47923;42.506;24.192;2022-10-16T03:20:55;95956.66;;;1.03;88.32
61961;BME280;47923;42.506;24.192;2022-10-16T03:23:21;96331.84;;;3.47;89.74
61961;BME280;47923;42.506;24.192;2022-10-16T03:25:46;96167.78;;;2.32;90.47
61961;BME280;47923;42.506;24.192;2022-10-16T03:28:12;96280.94;;;3.06;90.96
61961;BME280;47923;42.506;24.192;2022-10-16T03:30:37;96034.00;;;1.54;90.24
61961;BME280;47923;42.506;24.192;2022-10-16T03:33:05;96249.00;;;2.82;89.96
61961;BME280;47923;42.506;24.192;2022-10-16T03:35:30;96099.06;;;1.91;90.16
61961;BME280;47923;42.506;24.192;2022-10-16T03:37:56;96192.81;;;2.36;90.07
61961;BME280;47923;42.506;24.192;2022-10-16T03:40:21;96183.00;;;2.31;89.06
61961;BME280;47923;42.506;24.192;2022-10-16T03:42:47;96209.81;;;2.40;89.63
61961;BME280;47923;42.506;24.192;2022-10-16T03:45:12;96333.53;;;3.05;89.48
61961;BME280;47923;42.506;24.192;2022-10-16T03:47:38;96140.81;;;1.96;90.04
61961;BME280;47923;42.506;24.192;2022-10-16T03:50:04;96253.81;;;2.61;90.10
61961;BME280;47923;42.506;24.192;2022-10-16T03:52:29;96170.56;;;2.03;89.93
61961;BME280;47923;42.506;24.192;2022-10-16T03:54:55;96318.03;;;2.46;90.20
61961;BME280;47923;42.506;24.192;2022-10-16T03:57:21;96290.06;;;2.62;89.96
61961;BME280;47923;42.506;24.192;2022-10-16T03:59:46;95893.94;;;0.25;89.23
61961;BME280;47923;42.506;24.192;2022-10-16T04:02:12;96292.09;;;2.70;89.74
61961;BME280;47923;42.506;24.192;2022-10-16T04:04:38;96340.72;;;2.86;89.57
61961;BME280;47923;42.506;24.192;2022-10-16T04:07:03;96252.38;;;2.26;89.83
61961;BME280;47923;42.506;24.192;2022-10-16T04:09:29;96198.00;;;1.84;89.96
61961;BME280;47923;42.506;24.192;2022-10-16T04:11:54;96213.63;;;1.91;89.16
61961;BME280;47923;42.506;24.192;2022-10-16T04:14:20;96348.38;;;2.93;88.19
61961;BME280;47923;42.506;24.192;2022-10-16T04:16:45;96084.31;;;1.32;87.38
61961;BME280;47923;42.506;24.192;2022-10-16T04:19:11;96372.69;;;2.91;87.41
61961;BME280;47923;42.506;24.192;2022-10-16T04:21:36;96143.72;;;1.75;87.45
61961;BME280;47923;42.506;24.192;2022-10-16T04:24:02;96178.19;;;1.66;87.66
61961;BME280;47923;42.506;24.192;2022-10-16T04:26:28;96187.84;;;2.05;87.22
61961;BME280;47923;42.506;24.192;2022-10-16T04:28:53;96207.53;;;2.09;87.74
61961;BME280;47923;42.506;24.192;2022-10-16T04:31:19;96160.28;;;1.72;86.88
61961;BME280;47923;42.506;24.192;2022-10-16T04:33:45;96351.84;;;2.93;87.69
61961;BME280;47923;42.506;24.192;2022-10-16T04:36:11;96182.00;;;1.84;88.21
61961;BME280;47923;42.506;24.192;2022-10-16T04:38:36;96143.63;;;1.37;88.51
61961;BME280;47923;42.506;24.192;2022-10-16T04:41:03;96152.69;;;1.60;87.50
61961;BME280;47923;42.506;24.192;2022-10-16T04:43:29;96245.31;;;2.16;87.94
61961;BME280;47923;42.506;24.192;2022-10-16T04:45:55;96265.59;;;2.12;86.77
61961;BME280;47923;42.506;24.192;2022-10-16T04:48:21;96357.34;;;3.02;86.93
61961;BME280;47923;42.506;24.192;2022-10-16T04:50:47;96359.28;;;3.15;86.61
61961;BME280;47923;42.506;24.192;2022-10-16T04:53:13;96363.41;;;3.26;86.22
61961;BME280;47923;42.506;24.192;2022-10-16T04:55:38;96331.59;;;3.11;85.86
61961;BME280;47923;42.506;24.192;2022-10-16T04:58:04;96364.47;;;3.44;84.29
61961;BME280;47923;42.506;24.192;2022-10-16T05:00:30;96177.22;;;2.24;83.44
61961;BME280;47923;42.506;24.192;2022-10-16T05:02:55;96264.63;;;2.70;83.69
61961;BME280;47923;42.506;24.192;2022-10-16T05:05:22;96246.63;;;2.81;83.48
61961;BME280;47923;42.506;24.192;2022-10-16T05:07:48;96133.53;;;2.20;83.36
61961;BME280;47923;42.506;24.192;2022-10-16T05:10:15;96066.84;;;1.87;81.90
61961;BME280;47923;42.506;24.192;2022-10-16T05:12:40;96178.03;;;2.81;81.00
61961;BME280;47923;42.506;24.192;2022-10-16T05:15:06;96409.28;;;4.18;80.54
61961;BME280;47923;42.506;24.192;2022-10-16T05:17:32;96148.28;;;2.88;80.33
61961;BME280;47923;42.506;24.192;2022-10-16T05:19:57;96291.31;;;4.05;80.16
61961;BME280;47923;42.506;24.192;2022-10-16T05:22:23;96385.19;;;4.78;78.37
61961;BME280;47923;42.506;24.192;2022-10-16T05:24:48;96350.97;;;4.75;78.76
61961;BME280;47923;42.506;24.192;2022-10-16T05:27:14;96388.28;;;5.21;77.48
61961;BME280;47923;42.506;24.192;2022-10-16T05:29:48;96349.03;;;5.16;77.45
61961;BME280;47923;42.506;24.192;2022-10-16T05:32:15;96412.78;;;5.42;77.36
61961;BME280;47923;42.506;24.192;2022-10-16T05:34:41;96225.03;;;4.43;76.82
61961;BME280;47923;42.506;24.192;2022-10-16T05:37:07;96232.91;;;4.62;77.63
61961;BME280;47923;42.506;24.192;2022-10-16T05:39:32;96263.22;;;5.97;78.14
61961;BME280;47923;42.506;24.192;2022-10-16T05:41:58;96389.06;;;9.99;64.78
61961;BME280;47923;42.506;24.192;2022-10-16T05:44:23;96387.19;;;12.35;53.98
61961;BME280;47923;42.506;24.192;2022-10-16T05:46:49;96312.94;;;13.54;49.33
61961;BME280;47923;42.506;24.192;2022-10-16T05:49:14;96403.88;;;15.79;43.88
61961;BME280;47923;42.506;24.192;2022-10-16T05:51:40;96081.34;;;14.79;40.57
61961;BME280;47923;42.506;24.192;2022-10-16T05:54:10;95965.00;;;14.99;38.41
61961;BME280;47923;42.506;24.192;2022-10-16T05:56:35;96252.47;;;17.83;36.54
61961;BME280;47923;42.506;24.192;2022-10-16T05:59:03;96238.88;;;18.19;35.29
61961;BME280;47923;42.506;24.192;2022-10-16T06:01:29;96388.97;;;20.17;33.99
61961;BME280;47923;42.506;24.192;2022-10-16T06:03:56;96367.22;;;20.61;33.14
61961;BME280;47923;42.506;24.192;2022-10-16T06:06:24;96275.22;;;20.35;32.08
61961;BME280;47923;42.506;24.192;2022-10-16T06:08:55;96052.03;;;18.75;32.65
61961;BME280;47923;42.506;24.192;2022-10-16T06:11:24;96395.72;;;21.41;31.82
61961;BME280;47923;42.506;24.192;2022-10-16T06:13:54;96423.97;;;22.27;30.35
61961;BME280;47923;42.506;24.192;2022-10-16T06:16:22;96419.28;;;21.83;30.89
61961;BME280;47923;42.506;24.192;2022-10-16T06:18:47;96307.31;;;21.46;30.22
61961;BME280;47923;42.506;24.192;2022-10-16T06:21:18;96310.84;;;22.18;29.49
61961;BME280;47923;42.506;24.192;2022-10-16T06:23:44;96319.88;;;23.47;28.39
61961;BME280;47923;42.506;24.192;2022-10-16T06:26:16;96401.16;;;24.48;27.16
61961;BME280;47923;42.506;24.192;2022-10-16T06:28:42;96385.69;;;24.71;26.66
61961;BME280;47923;42.506;24.192;2022-10-16T06:31:09;96423.66;;;26.17;25.67
61961;BME280;47923;42.506;24.192;2022-10-16T06:33:35;96303.69;;;25.00;25.05
61961;BME280;47923;42.506;24.192;2022-10-16T06:36:13;96380.91;;;24.91;26.31
61961;BME280;47923;42.506;24.192;2022-10-16T06:38:40;96364.84;;;25.51;25.75
61961;BME280;47923;42.506;24.192;2022-10-16T06:41:06;96346.00;;;26.08;24.34
61961;BME280;47923;42.506;24.192;2022-10-16T06:43:33;96153.41;;;24.94;24.05
61961;BME280;47923;42.506;24.192;2022-10-16T06:46:01;96383.09;;;27.07;23.67
61961;BME280;47923;42.506;24.192;2022-10-16T06:48:28;96416.91;;;27.40;23.73
61961;BME280;47923;42.506;24.192;2022-10-16T06:51:01;96417.13;;;27.20;23.81
61961;BME280;47923;42.506;24.192;2022-10-16T06:53:29;96373.84;;;26.84;24.29
61961;BME280;47923;42.506;24.192;2022-10-16T06:55:55;96135.44;;;25.99;24.35
61961;BME280;47923;42.506;24.192;2022-10-16T06:58:21;96375.47;;;27.71;24.26
61961;BME280;47923;42.506;24.192;2022-10-16T07:00:47;96206.34;;;27.20;23.84
61961;BME280;47923;42.506;24.192;2022-10-16T07:03:13;96360.97;;;29.16;21.65
61961;BME280;47923;42.506;24.192;2022-10-16T07:05:39;96257.19;;;27.95;22.15
61961;BME280;47923;42.506;24.192;2022-10-16T07:08:05;96146.50;;;28.06;20.81
61961;BME280;47923;42.506;24.192;2022-10-16T07:10:32;96147.31;;;27.63;21.88
61961;BME280;47923;42.506;24.192;2022-10-16T07:12:57;96353.44;;;28.64;22.61
61961;BME280;47923;42.506;24.192;2022-10-16T07:15:24;96369.91;;;28.49;23.02
61961;BME280;47923;42.506;24.192;2022-10-16T07:17:49;96382.94;;;30.37;20.61
61961;BME280;47923;42.506;24.192;2022-10-16T07:20:15;96352.94;;;28.56;21.85
61961;BME280;47923;42.506;24.192;2022-10-16T07:22:41;96362.97;;;30.30;21.55
61961;BME280;47923;42.506;24.192;2022-10-16T07:25:06;96202.56;;;29.40;20.27
61961;BME280;47923;42.506;24.192;2022-10-16T07:27:32;96425.66;;;29.39;21.75
61961;BME280;47923;42.506;24.192;2022-10-16T07:29:57;96418.88;;;30.17;21.18
61961;BME280;47923;42.506;24.192;2022-10-16T07:32:23;96298.66;;;28.65;22.55
61961;BME280;47923;42.506;24.192;2022-10-16T07:34:51;96375.00;;;31.48;20.19
61961;BME280;47923;42.506;24.192;2022-10-16T07:37:16;96288.66;;;30.36;19.80
61961;BME280;47923;42.506;24.192;2022-10-16T07:39:42;96365.91;;;30.44;20.45
61961;BME280;47923;42.506;24.192;2022-10-16T07:42:07;96404.09;;;29.61;21.56
61961;BME280;47923;42.506;24.192;2022-10-16T07:44:33;96270.88;;;28.74;21.78
61961;BME280;47923;42.506;24.192;2022-10-16T07:46:58;96413.84;;;29.66;22.35
61961;BME280;47923;42.506;24.192;2022-10-16T07:49:24;96427.50;;;29.82;21.60
61961;BME280;47923;42.506;24.192;2022-10-16T07:51:50;96446.81;;;29.67;21.80
61961;BME280;47923;42.506;24.192;2022-10-16T07:54:15;96440.22;;;30.57;20.97
61961;BME280;47923;42.506;24.192;2022-10-16T07:56:41;96376.63;;;30.09;20.67
61961;BME280;47923;42.506;24.192;2022-10-16T07:59:06;96446.50;;;32.02;20.35
61961;BME280;47923;42.506;24.192;2022-10-16T08:01:32;96469.41;;;31.16;19.60
61961;BME280;47923;42.506;24.192;2022-10-16T08:03:57;96358.41;;;30.78;19.82
61961;BME280;47923;42.506;24.192;2022-10-16T08:06:22;96395.56;;;29.56;20.81
61961;BME280;47923;42.506;24.192;2022-10-16T08:08:50;96278.53;;;28.92;20.09
61961;BME280;47923;42.506;24.192;2022-10-16T08:11:16;96325.97;;;29.56;20.49
61961;BME280;47923;42.506;24.192;2022-10-16T08:13:42;96452.38;;;31.23;21.54
61961;BME280;47923;42.506;24.192;2022-10-16T08:16:08;96447.31;;;32.95;17.92
61961;BME280;47923;42.506;24.192;2022-10-16T08:18:36;96410.34;;;31.18;19.33
61961;BME280;47923;42.506;24.192;2022-10-16T08:21:02;96394.38;;;29.84;20.50
61961;BME280;47923;42.506;24.192;2022-10-16T08:23:28;96445.47;;;29.99;20.76
61961;BME280;47923;42.506;24.192;2022-10-16T08:26:05;96427.69;;;30.70;20.32
61961;BME280;47923;42.506;24.192;2022-10-16T08:28:37;96451.59;;;31.23;19.58
61961;BME280;47923;42.506;24.192;2022-10-16T08:31:20;96304.63;;;29.80;19.28
61961;BME280;47923;42.506;24.192;2022-10-16T08:33:59;96384.16;;;29.81;20.57
61961;BME280;47923;42.506;24.192;2022-10-16T08:36:30;96447.06;;;30.56;19.90
61961;BME280;47923;42.506;24.192;2022-10-16T08:38:55;96435.75;;;31.20;20.20
61961;BME280;47923;42.506;24.192;2022-10-16T08:49:21;96291.03;;;31.03;18.29
61961;BME280;47923;42.506;24.192;2022-10-16T08:51:50;96429.88;;;31.18;18.96
61961;BME280;47923;42.506;24.192;2022-10-16T08:56:44;96436.34;;;29.50;20.38
61961;BME280;47923;42.506;24.192;2022-10-16T08:59:10;96224.00;;;27.13;21.22
61961;BME280;47923;42.506;24.192;2022-10-16T09:01:42;96359.31;;;28.13;21.26
61961;BME280;47923;42.506;24.192;2022-10-16T09:06:43;96448.09;;;28.39;21.39
61961;BME280;47923;42.506;24.192;2022-10-16T09:15:43;96436.28;;;29.81;21.56
61961;BME280;47923;42.506;24.192;2022-10-16T09:20:25;96448.22;;;29.01;21.02
61961;BME280;47923;42.506;24.192;2022-10-16T09:25:28;96327.59;;;27.67;21.66
61961;BME280;47923;42.506;24.192;2022-10-16T09:27:54;96338.44;;;27.87;21.39
61961;BME280;47923;42.506;24.192;2022-10-16T09:30:21;96456.63;;;28.88;21.36
61961;BME280;47923;42.506;24.192;2022-10-16T09:32:52;96422.16;;;28.85;21.41
61961;BME280;47923;42.506;24.192;2022-10-16T09:35:31;96300.34;;;28.31;21.13
61961;BME280;47923;42.506;24.192;2022-10-16T09:37:57;96085.16;;;26.73;21.24
61961;BME280;47923;42.506;24.192;2022-10-16T09:40:28;96259.59;;;27.49;21.23
61961;BME280;47923;42.506;24.192;2022-10-16T09:43:12;96420.69;;;29.83;20.20
61961;BME280;47923;42.506;24.192;2022-10-16T09:45:39;96400.22;;;29.09;20.75
61961;BME280;47923;42.506;24.192;2022-10-16T09:48:12;96238.75;;;28.73;20.22
61961;BME280;47923;42.506;24.192;2022-10-16T09:50:38;96437.53;;;29.89;20.00
61961;BME280;47923;42.506;24.192;2022-10-16T09:53:12;96373.47;;;28.81;20.83
61961;BME280;47923;42.506;24.192;2022-10-16T09:55:50;96415.03;;;29.47;20.28
61961;BME280;47923;42.506;24.192;2022-10-16T09:58:16;96375.19;;;29.09;21.05
61961;BME280;47923;42.506;24.192;2022-10-16T10:00:49;96395.00;;;29.79;20.25
61961;BME280;47923;42.506;24.192;2022-10-16T10:03:37;96356.22;;;28.64;20.74
61961;BME280;47923;42.506;24.192;2022-10-16T10:06:16;96379.25;;;30.22;19.74
61961;BME280;47923;42.506;24.192;2022-10-16T10:09:22;96313.53;;;28.80;19.99
61961;BME280;47923;42.506;24.192;2022-10-16T10:11:52;96398.31;;;29.47;20.08
61961;BME280;47923;42.506;24.192;2022-10-16T10:14:45;96349.41;;;28.34;21.27
61961;BME280;47923;42.506;24.192;2022-10-16T10:17:13;96155.19;;;27.87;21.14
61961;BME280;47923;42.506;24.192;2022-10-16T10:28:13;96246.91;;;26.54;22.85
61961;BME280;47923;42.506;24.192;2022-10-16T10:33:47;96419.19;;;27.79;21.98
61961;BME280;47923;42.506;24.192;2022-10-16T10:36:40;96373.84;;;27.48;22.84
61961;BME280;47923;42.506;24.192;2022-10-16T10:39:17;96163.13;;;26.24;23.61
61961;BME280;47923;42.506;24.192;2022-10-16T10:45:02;96363.88;;;29.04;21.49
61961;BME280;47923;42.506;24.192;2022-10-16T10:47:46;96363.00;;;29.25;20.40
61961;BME280;47923;42.506;24.192;2022-10-16T10:55:40;96281.53;;;27.35;22.16
61961;BME280;47923;42.506;24.192;2022-10-16T11:01:13;96348.66;;;26.79;24.39
61961;BME280;47923;42.506;24.192;2022-10-16T11:12:05;96290.53;;;25.82;24.39
61961;BME280;47923;42.506;24.192;2022-10-16T11:14:40;96259.00;;;26.47;23.18
61961;BME280;47923;42.506;24.192;2022-10-16T11:17:27;96153.00;;;25.25;23.49
61961;BME280;47923;42.506;24.192;2022-10-16T11:19:58;96297.56;;;24.76;25.47
61961;BME280;47923;42.506;24.192;2022-10-16T11:22:36;96340.69;;;25.84;25.03
61961;BME280;47923;42.506;24.192;2022-10-16T11:25:26;96342.28;;;25.53;25.01
61961;BME280;47923;42.506;24.192;2022-10-16T11:30:44;96050.31;;;21.85;26.96
61961;BME280;47923;42.506;24.192;2022-10-16T11:33:24;96308.81;;;23.03;28.32
61961;BME280;47923;42.506;24.192;2022-10-16T11:43:48;95997.53;;;19.10;31.87
61961;BME280;47923;42.506;24.192;2022-10-16T11:46:19;96351.50;;;20.69;32.96
61961;BME280;47923;42.506;24.192;2022-10-16T11:49:08;96201.13;;;19.73;32.65
61961;BME280;47923;42.506;24.192;2022-10-16T11:51:40;96344.59;;;20.36;33.25
61961;BME280;47923;42.506;24.192;2022-10-16T11:54:21;96308.31;;;20.07;33.06
61961;BME280;47923;42.506;24.192;2022-10-16T11:56:50;96332.13;;;20.28;34.23
61961;BME280;47923;42.506;24.192;2022-10-16T12:01:57;96035.28;;;18.48;34.13
61961;BME280;47923;42.506;24.192;2022-10-16T12:04:45;96311.44;;;20.05;33.58
61961;BME280;47923;42.506;24.192;2022-10-16T12:07:23;96115.78;;;18.62;34.63
61961;BME280;47923;42.506;24.192;2022-10-16T12:09:51;96268.06;;;19.75;34.28
61961;BME280;47923;42.506;24.192;2022-10-16T12:12:43;96261.13;;;19.42;34.67
61961;BME280;47923;42.506;24.192;2022-10-16T12:15:27;96030.72;;;17.78;35.10
61961;BME280;47923;42.506;24.192;2022-10-16T12:17:54;96324.50;;;19.66;35.04
61961;BME280;47923;42.506;24.192;2022-10-16T12:20:31;96348.41;;;19.44;35.58
61961;BME280;47923;42.506;24.192;2022-10-16T12:23:00;96348.00;;;19.45;35.61
61961;BME280;47923;42.506;24.192;2022-10-16T12:25:28;96339.44;;;19.32;36.11
61961;BME280;47923;42.506;24.192;2022-10-16T12:28:15;96357.84;;;19.32;36.07
61961;BME280;47923;42.506;24.192;2022-10-16T12:30:43;96240.50;;;18.52;35.92
61961;BME280;47923;42.506;24.192;2022-10-16T12:33:33;96373.09;;;19.15;35.87
61961;BME280;47923;42.506;24.192;2022-10-16T12:36:02;96346.09;;;19.17;36.43
61961;BME280;47923;42.506;24.192;2022-10-16T12:38:44;96018.88;;;16.99;35.91
61961;BME280;47923;42.506;24.192;2022-10-16T12:41:10;96160.75;;;17.93;36.46
61961;BME280;47923;42.506;24.192;2022-10-16T12:43:45;96027.44;;;16.97;36.85
61961;BME280;47923;42.506;24.192;2022-10-16T12:48:38;96349.22;;;18.94;36.68
61961;BME280;47923;42.506;24.192;2022-10-16T12:54:04;96275.22;;;18.23;37.08
61961;BME280;47923;42.506;24.192;2022-10-16T12:57:26;96342.16;;;18.72;37.55
61961;BME280;47923;42.506;24.192;2022-10-16T13:00:11;96351.56;;;18.74;37.23
61961;BME280;47923;42.506;24.192;2022-10-16T13:02:49;96225.53;;;17.85;37.33
61961;BME280;47923;42.506;24.192;2022-10-16T13:12:18;96311.94;;;18.26;37.83
61961;BME280;47923;42.506;24.192;2022-10-16T13:20:10;96345.63;;;18.44;38.01
61961;BME280;47923;42.506;24.192;2022-10-16T13:22:47;96039.16;;;16.28;37.85
61961;BME280;47923;42.506;24.192;2022-10-16T13:25:32;96378.34;;;18.15;38.37
61961;BME280;47923;42.506;24.192;2022-10-16T13:28:06;96232.97;;;17.08;38.87
61961;BME280;47923;42.506;24.192;2022-10-16T13:30:40;96313.50;;;17.39;39.58
61961;BME280;47923;42.506;24.192;2022-10-16T13:33:31;96352.41;;;17.84;39.50
61961;BME280;47923;42.506;24.192;2022-10-16T13:36:19;96288.19;;;17.43;39.35
61961;BME280;47923;42.506;24.192;2022-10-16T13:47:39;96252.66;;;16.80;39.52
61961;BME280;47923;42.506;24.192;2022-10-16T13:50:27;96336.53;;;17.38;39.68
61961;BME280;47923;42.506;24.192;2022-10-16T13:53:14;96387.81;;;17.63;40.07
61961;BME280;47923;42.506;24.192;2022-10-16T13:55:44;96226.34;;;16.54;39.65
61961;BME280;47923;42.506;24.192;2022-10-16T13:58:19;96401.25;;;17.31;39.58
61961;BME280;47923;42.506;24.192;2022-10-16T14:00:58;96126.34;;;15.73;39.80
61961;BME280;47923;42.506;24.192;2022-10-16T14:03:28;96381.72;;;17.29;39.84
61961;BME280;47923;42.506;24.192;2022-10-16T14:06:00;96399.22;;;17.21;40.40
61961;BME280;47923;42.506;24.192;2022-10-16T14:08:27;96079.13;;;15.22;40.12
61961;BME280;47923;42.506;24.192;2022-10-16T14:10:57;96359.59;;;16.90;40.17
61961;BME280;47923;42.506;24.192;2022-10-16T14:13:50;96301.44;;;16.41;40.16
61961;BME280;47923;42.506;24.192;2022-10-16T14:16:27;96427.88;;;16.97;39.92
61961;BME280;47923;42.506;24.192;2022-10-16T14:19:04;96336.44;;;16.36;39.84
61961;BME280;47923;42.506;24.192;2022-10-16T14:21:39;96293.72;;;16.10;40.23
61961;BME280;47923;42.506;24.192;2022-10-16T14:26:53;96369.13;;;16.32;40.63
61961;BME280;47923;42.506;24.192;2022-10-16T14:29:22;96394.16;;;16.41;40.51
61961;BME280;47923;42.506;24.192;2022-10-16T14:32:02;96102.13;;;14.37;40.96
61961;BME280;47923;42.506;24.192;2022-10-16T14:34:38;96363.72;;;16.02;41.22
61961;BME280;47923;42.506;24.192;2022-10-16T14:37:25;96260.97;;;15.12;41.06
61961;BME280;47923;42.506;24.192;2022-10-16T14:39:52;96387.31;;;15.91;41.00
61961;BME280;47923;42.506;24.192;2022-10-16T14:42:20;96217.72;;;14.77;41.16
61961;BME280;47923;42.506;24.192;2022-10-16T14:44:52;96419.78;;;16.03;41.73
61961;BME280;47923;42.506;24.192;2022-10-16T14:47:22;96404.03;;;15.89;41.53
61961;BME280;47923;42.506;24.192;2022-10-16T14:49:52;96417.66;;;15.89;41.30
61961;BME280;47923;42.506;24.192;2022-10-16T14:52:20;96076.22;;;13.45;41.50
61961;BME280;47923;42.506;24.192;2022-10-16T14:54:49;96259.91;;;14.68;42.34
61961;BME280;47923;42.506;24.192;2022-10-16T14:57:19;96420.41;;;15.63;41.94
61961;BME280;47923;42.506;24.192;2022-10-16T14:59:47;96360.41;;;15.06;41.98
61961;BME280;47923;42.506;24.192;2022-10-16T15:02:31;96243.34;;;14.30;42.32